sensor_id;sensor_type;location;lat;lon;timestamp;pressure;altitude;pressure_sealevel;temperature;humidity
18749;BME280;9503;53.560;10.246;2022-08-19T00:01:17;100596.28;;;20.66;98.61
18749;BME280;9503;53.560;10.246;2022-08-19T00:03:44;100591.94;;;20.64;98.46
18749;BME280;9503;53.560;10.246;2022-08-19T00:06:10;100585.88;;;20.66;98.56
18749;BME280;9503;53.560;10.246;2022-08-19T00:08:39;100585.88;;;20.68;98.41
18749;BME280;9503;53.560;10.246;2022-08-19T00:11:06;100582.38;;;20.67;98.40
18749;BME280;9503;53.560;10.246;2022-08-19T00:13:33;100586.72;;;20.67;98.24
18749;BME280;9503;53.560;10.246;2022-08-19T00:16:00;100592.81;;;20.69;98.02
18749;BME280;9503;53.560;10.246;2022-08-19T00:18:27;100595.38;;;20.61;98.07
18749;BME280;9503;53.560;10.246;2022-08-19T00:20:54;100599.72;;;20.61;98.46
18749;BME280;9503;53.560;10.246;2022-08-19T00:23:21;100603.22;;;20.66;98.00
18749;BME280;9503;53.560;10.246;2022-08-19T00:25:49;100596.28;;;20.71;98.04
18749;BME280;9503;53.560;10.246;2022-08-19T00:28:16;100595.34;;;20.55;98.79
18749;BME280;9503;53.560;10.246;2022-08-19T00:30:42;100599.66;;;20.46;99.08
18749;BME280;9503;53.560;10.246;2022-08-19T00:33:09;100597.91;;;20.46;99.49
18749;BME280;9503;53.560;10.246;2022-08-19T00:35:36;100590.16;;;20.57;99.66
18749;BME280;9503;53.560;10.246;2022-08-19T00:38:03;100588.41;;;20.54;99.72
18749;BME280;9503;53.560;10.246;2022-08-19T00:40:31;100577.16;;;20.60;99.43
18749;BME280;9503;53.560;10.246;2022-08-19T00:42:59;100571.03;;;20.50;100.00
18749;BME280;9503;53.560;10.246;2022-08-19T00:45:28;100571.06;;;20.61;99.62
18749;BME280;9503;53.560;10.246;2022-08-19T00:47:57;100565.81;;;20.52;100.00
18749;BME280;9503;53.560;10.246;2022-08-19T00:50:29;100566.72;;;20.63;100.00
18749;BME280;9503;53.560;10.246;2022-08-19T00:52:56;100559.78;;;20.60;100.00
18749;BME280;9503;53.560;10.246;2022-08-19T00:55:26;100557.13;;;20.54;100.00
18749;BME280;9503;53.560;10.246;2022-08-19T00:57:58;100558.94;;;20.67;100.00
18749;BME280;9503;53.560;10.246;2022-08-19T01:00:29;100567.66;;;20.73;100.00
18749;BME280;9503;53.560;10.246;2022-08-19T01:02:57;100557.22;;;20.65;99.71
18749;BME280;9503;53.560;10.246;2022-08-19T01:05:26;100557.13;;;20.56;100.00
18749;BME280;9503;53.560;10.246;2022-08-19T01:07:54;100558.03;;;20.62;100.00
18749;BME280;9503;53.560;10.246;2022-08-19T01:10:25;100566.75;;;20.69;100.00
18749;BME280;9503;53.560;10.246;2022-08-19T01:12:54;100567.59;;;20.59;100.00
18749;BME280;9503;53.560;10.246;2022-08-19T01:15:25;100565.88;;;20.64;100.00
18749;BME280;9503;53.560;10.246;2022-08-19T01:17:55;100558.94;;;20.66;100.00
18749;BME280;9503;53.560;10.246;2022-08-19T01:20:23;100557.22;;;20.76;100.00
18749;BME280;9503;53.560;10.246;2022-08-19T01:22:53;100556.34;;;20.64;100.00
18749;BME280;9503;53.560;10.246;2022-08-19T01:25:22;100564.19;;;20.74;100.00
18749;BME280;9503;53.560;10.246;2022-08-19T01:27:51;100554.63;;;20.77;100.00
18749;BME280;9503;53.560;10.246;2022-08-19T01:30:21;100566.78;;;20.72;100.00
18749;BME280;9503;53.560;10.246;2022-08-19T01:32:48;100565.91;;;20.75;100.00
18749;BME280;9503;53.560;10.246;2022-08-19T01:35:16;100560.69;;;20.64;100.00
18749;BME280;9503;53.560;10.246;2022-08-19T01:37:45;100567.63;;;20.68;100.00
18749;BME280;9503;53.560;10.246;2022-08-19T01:40:14;100558.06;;;20.65;100.00
18749;BME280;9503;53.560;10.246;2022-08-19T01:42:41;100554.59;;;20.71;100.00
18749;BME280;9503;53.560;10.246;2022-08-19T01:45:08;100542.47;;;20.78;99.59
18749;BME280;9503;53.560;10.246;2022-08-19T01:47:36;100537.25;;;20.73;100.00
18749;BME280;9503;53.560;10.246;2022-08-19T01:50:04;100540.69;;;20.69;100.00
18749;BME280;9503;53.560;10.246;2022-08-19T01:52:31;100533.75;;;20.65;100.00
18749;BME280;9503;53.560;10.246;2022-08-19T01:54:58;100536.41;;;20.82;99.63
18749;BME280;9503;53.560;10.246;2022-08-19T01:57:26;100532.84;;;20.61;100.00
18749;BME280;9503;53.560;10.246;2022-08-19T01:59:54;100532.84;;;20.61;100.00
18749;BME280;9503;53.560;10.246;2022-08-19T02:02:21;100527.63;;;20.54;100.00
18749;BME280;9503;53.560;10.246;2022-08-19T02:04:48;100531.13;;;20.63;100.00
18749;BME280;9503;53.560;10.246;2022-08-19T02:07:15;100521.53;;;20.52;100.00
18749;BME280;9503;53.560;10.246;2022-08-19T02:09:44;100519.81;;;20.55;100.00
18749;BME280;9503;53.560;10.246;2022-08-19T02:12:14;100522.41;;;20.55;100.00
18749;BME280;9503;53.560;10.246;2022-08-19T02:14:42;100519.81;;;20.54;100.00
18749;BME280;9503;53.560;10.246;2022-08-19T02:17:09;100515.44;;;20.45;100.00
18749;BME280;9503;53.560;10.246;2022-08-19T02:19:36;100525.00;;;20.51;100.00
18749;BME280;9503;53.560;10.246;2022-08-19T02:22:03;100530.22;;;20.49;100.00
18749;BME280;9503;53.560;10.246;2022-08-19T02:24:32;100524.03;;;20.41;100.00
18749;BME280;9503;53.560;10.246;2022-08-19T02:26:59;100524.13;;;20.44;100.00
18749;BME280;9503;53.560;10.246;2022-08-19T02:29:26;100528.44;;;20.47;100.00
18749;BME280;9503;53.560;10.246;2022-08-19T02:31:54;100528.44;;;20.47;100.00
18749;BME280;9503;53.560;10.246;2022-08-19T02:34:21;100524.22;;;20.65;100.00
18749;BME280;9503;53.560;10.246;2022-08-19T02:36:48;100532.06;;;20.79;100.00
18749;BME280;9503;53.560;10.246;2022-08-19T02:39:14;100535.47;;;20.63;100.00
18749;BME280;9503;53.560;10.246;2022-08-19T02:41:40;100528.63;;;20.86;99.67
18749;BME280;9503;53.560;10.246;2022-08-19T02:44:07;100522.47;;;20.66;100.00
18749;BME280;9503;53.560;10.246;2022-08-19T02:46:34;100524.22;;;20.75;100.00
18749;BME280;9503;53.560;10.246;2022-08-19T02:49:07;100536.38;;;20.77;100.00
18749;BME280;9503;53.560;10.246;2022-08-19T02:51:36;100523.38;;;20.74;100.00
18749;BME280;9503;53.560;10.246;2022-08-19T02:54:04;100523.41;;;20.86;99.81
18749;BME280;9503;53.560;10.246;2022-08-19T02:56:33;100509.44;;;20.69;100.00
18749;BME280;9503;53.560;10.246;2022-08-19T02:59:00;100518.06;;;20.56;100.00
18749;BME280;9503;53.560;10.246;2022-08-19T03:01:28;100519.00;;;20.64;100.00
18749;BME280;9503;53.560;10.246;2022-08-19T03:04:02;100525.06;;;20.66;100.00
18749;BME280;9503;53.560;10.246;2022-08-19T03:06:31;100519.88;;;20.72;100.00
18749;BME280;9503;53.560;10.246;2022-08-19T03:08:58;100512.06;;;20.74;100.00
18749;BME280;9503;53.560;10.246;2022-08-19T03:11:28;100510.28;;;20.62;100.00
18749;BME280;9503;53.560;10.246;2022-08-19T03:13:56;100513.81;;;20.78;100.00
18749;BME280;9503;53.560;10.246;2022-08-19T03:16:25;100515.50;;;20.63;100.00
18749;BME280;9503;53.560;10.246;2022-08-19T03:18:53;100521.56;;;20.61;100.00
18749;BME280;9503;53.560;10.246;2022-08-19T03:21:22;100520.72;;;20.68;100.00
18749;BME280;9503;53.560;10.246;2022-08-19T03:23:53;100524.19;;;20.59;100.00
18749;BME280;9503;53.560;10.246;2022-08-19T03:26:20;100527.69;;;20.64;100.00
18749;BME280;9503;53.560;10.246;2022-08-19T03:28:47;100524.22;;;20.75;100.00
18749;BME280;9503;53.560;10.246;2022-08-19T03:31:16;100521.63;;;20.75;100.00
18749;BME280;9503;53.560;10.246;2022-08-19T03:33:44;100525.13;;;20.80;100.00
18749;BME280;9503;53.560;10.246;2022-08-19T03:36:14;100523.38;;;20.74;100.00
18749;BME280;9503;53.560;10.246;2022-08-19T03:38:43;100533.75;;;20.66;100.00
18749;BME280;9503;53.560;10.246;2022-08-19T03:41:13;100537.25;;;20.78;100.00
18749;BME280;9503;53.560;10.246;2022-08-19T03:43:41;100549.44;;;20.80;100.00
18749;BME280;9503;53.560;10.246;2022-08-19T03:46:10;100552.91;;;20.73;100.00
18749;BME280;9503;53.560;10.246;2022-08-19T03:48:39;100559.88;;;20.80;100.00
18749;BME280;9503;53.560;10.246;2022-08-19T03:51:07;100563.34;;;20.82;100.00
18749;BME280;9503;53.560;10.246;2022-08-19T03:53:35;100573.78;;;20.79;100.00
18749;BME280;9503;53.560;10.246;2022-08-19T03:56:02;100578.94;;;20.76;100.00
18749;BME280;9503;53.560;10.246;2022-08-19T03:58:30;100581.56;;;20.76;100.00
18749;BME280;9503;53.560;10.246;2022-08-19T04:00:58;100585.94;;;20.83;100.00
18749;BME280;9503;53.560;10.246;2022-08-19T04:03:25;100584.16;;;20.72;100.00
18749;BME280;9503;53.560;10.246;2022-08-19T04:05:53;100585.03;;;20.75;100.00
18749;BME280;9503;53.560;10.246;2022-08-19T04:08:20;100581.56;;;20.78;100.00
18749;BME280;9503;53.560;10.246;2022-08-19T04:10:48;100584.22;;;20.90;100.00
18749;BME280;9503;53.560;10.246;2022-08-19T04:13:15;100583.38;;;20.95;100.00
18749;BME280;9503;53.560;10.246;2022-08-19T04:15:44;100585.09;;;20.90;100.00
18749;BME280;9503;53.560;10.246;2022-08-19T04:18:12;100580.78;;;20.95;99.70
18749;BME280;9503;53.560;10.246;2022-08-19T04:20:41;100587.69;;;20.90;99.63
18749;BME280;9503;53.560;10.246;2022-08-19T04:23:08;100593.81;;;20.98;99.48
18749;BME280;9503;53.560;10.246;2022-08-19T04:25:39;100599.91;;;21.01;99.30
18749;BME280;9503;53.560;10.246;2022-08-19T04:28:07;100597.28;;;20.96;98.96
18749;BME280;9503;53.560;10.246;2022-08-19T04:30:39;100596.44;;;21.05;99.16
18749;BME280;9503;53.560;10.246;2022-08-19T04:33:07;100599.03;;;20.98;98.95
18749;BME280;9503;53.560;10.246;2022-08-19T04:35:36;100599.03;;;21.06;98.89
18749;BME280;9503;53.560;10.246;2022-08-19T04:38:04;100600.78;;;21.07;98.55
18749;BME280;9503;53.560;10.246;2022-08-19T04:40:31;100594.72;;;21.10;98.46
18749;BME280;9503;53.560;10.246;2022-08-19T04:43:16;100590.38;;;21.15;98.42
18749;BME280;9503;53.560;10.246;2022-08-19T04:45:43;100594.72;;;21.13;98.38
18749;BME280;9503;53.560;10.246;2022-08-19T04:48:11;100592.13;;;21.08;98.07
18749;BME280;9503;53.560;10.246;2022-08-19T04:50:40;100597.34;;;21.08;98.14
18749;BME280;9503;53.560;10.246;2022-08-19T04:53:11;100605.13;;;21.04;97.97
18749;BME280;9503;53.560;10.246;2022-08-19T04:55:41;100594.75;;;21.16;97.66
18749;BME280;9503;53.560;10.246;2022-08-19T04:58:08;100602.56;;;21.17;97.87
18749;BME280;9503;53.560;10.246;2022-08-19T05:00:37;100606.03;;;21.16;97.53
18749;BME280;9503;53.560;10.246;2022-08-19T05:03:04;100606.88;;;21.12;97.70
18749;BME280;9503;53.560;10.246;2022-08-19T05:05:32;100615.56;;;21.13;98.03
18749;BME280;9503;53.560;10.246;2022-08-19T05:07:59;100612.88;;;20.90;98.74
18749;BME280;9503;53.560;10.246;2022-08-19T05:10:26;100611.22;;;21.07;98.34
18749;BME280;9503;53.560;10.246;2022-08-19T05:12:52;100616.38;;;20.86;98.94
18749;BME280;9503;53.560;10.246;2022-08-19T05:15:19;100617.28;;;20.94;99.16
18749;BME280;9503;53.560;10.246;2022-08-19T05:17:46;100620.75;;;20.99;98.92
18749;BME280;9503;53.560;10.246;2022-08-19T05:20:26;100617.28;;;21.06;98.49
18749;BME280;9503;53.560;10.246;2022-08-19T05:23:12;100620.72;;;20.88;99.27
18749;BME280;9503;53.560;10.246;2022-08-19T05:25:40;100625.06;;;20.89;99.68
18749;BME280;9503;53.560;10.246;2022-08-19T05:28:07;100628.56;;;20.99;99.56
18749;BME280;9503;53.560;10.246;2022-08-19T05:30:34;100625.09;;;21.00;99.32
18749;BME280;9503;53.560;10.246;2022-08-19T05:33:01;100632.06;;;21.04;99.37
18749;BME280;9503;53.560;10.246;2022-08-19T05:35:28;100623.38;;;21.02;99.22
18749;BME280;9503;53.560;10.246;2022-08-19T05:37:54;100621.66;;;21.12;99.30
18749;BME280;9503;53.560;10.246;2022-08-19T05:40:22;100617.28;;;21.08;99.07
18749;BME280;9503;53.560;10.246;2022-08-19T05:42:49;100620.78;;;21.13;98.87
18749;BME280;9503;53.560;10.246;2022-08-19T05:45:16;100616.41;;;21.07;99.16
18749;BME280;9503;53.560;10.246;2022-08-19T05:47:43;100623.41;;;21.22;98.70
18749;BME280;9503;53.560;10.246;2022-08-19T05:50:10;100627.72;;;21.05;98.57
18749;BME280;9503;53.560;10.246;2022-08-19T05:52:37;100624.31;;;21.24;98.30
18749;BME280;9503;53.560;10.246;2022-08-19T05:55:05;100619.06;;;21.15;98.13
18749;BME280;9503;53.560;10.246;2022-08-19T05:57:33;100614.72;;;21.11;98.33
18749;BME280;9503;53.560;10.246;2022-08-19T06:00:00;100609.53;;;21.17;98.37
18749;BME280;9503;53.560;10.246;2022-08-19T06:02:28;100612.97;;;21.14;99.09
18749;BME280;9503;53.560;10.246;2022-08-19T06:04:56;100619.06;;;21.15;98.75
18749;BME280;9503;53.560;10.246;2022-08-19T06:07:23;100616.53;;;21.29;98.13
18749;BME280;9503;53.560;10.246;2022-08-19T06:09:50;100618.25;;;21.28;97.81
18749;BME280;9503;53.560;10.246;2022-08-19T06:12:16;100616.56;;;21.41;96.79
18749;BME280;9503;53.560;10.246;2022-08-19T06:14:45;100610.50;;;21.54;96.31
18749;BME280;9503;53.560;10.246;2022-08-19T06:17:11;100610.47;;;21.34;97.21
18749;BME280;9503;53.560;10.246;2022-08-19T06:19:38;100610.47;;;21.40;96.91
18749;BME280;9503;53.560;10.246;2022-08-19T06:22:06;100615.69;;;21.49;96.18
18749;BME280;9503;53.560;10.246;2022-08-19T06:24:33;100618.34;;;21.65;95.43
18749;BME280;9503;53.560;10.246;2022-08-19T06:27:01;100618.31;;;21.57;95.47
18749;BME280;9503;53.560;10.246;2022-08-19T06:29:28;100619.22;;;21.61;95.46
18749;BME280;9503;53.560;10.246;2022-08-19T06:31:58;100618.34;;;21.71;95.22
18749;BME280;9503;53.560;10.246;2022-08-19T06:34:26;100621.81;;;21.65;94.86
18749;BME280;9503;53.560;10.246;2022-08-19T06:36:54;100617.44;;;21.47;95.55
18749;BME280;9503;53.560;10.246;2022-08-19T06:39:30;100610.53;;;21.69;95.03
18749;BME280;9503;53.560;10.246;2022-08-19T06:41:59;100604.44;;;21.69;94.42
18749;BME280;9503;53.560;10.246;2022-08-19T06:44:28;100600.94;;;21.62;94.39
18749;BME280;9503;53.560;10.246;2022-08-19T06:46:56;100597.44;;;21.46;94.94
18749;BME280;9503;53.560;10.246;2022-08-19T06:49:23;100605.28;;;21.45;95.40
18749;BME280;9503;53.560;10.246;2022-08-19T06:51:52;100610.47;;;21.51;95.24
18749;BME280;9503;53.560;10.246;2022-08-19T06:54:22;100615.72;;;21.48;95.62
18749;BME280;9503;53.560;10.246;2022-08-19T06:56:48;100614.81;;;21.44;95.75
18749;BME280;9503;53.560;10.246;2022-08-19T06:59:17;100615.72;;;21.74;95.42
18749;BME280;9503;53.560;10.246;2022-08-19T07:01:47;100611.38;;;21.85;94.59
18749;BME280;9503;53.560;10.246;2022-08-19T07:04:18;100614.88;;;21.90;93.88
18749;BME280;9503;53.560;10.246;2022-08-19T07:09:14;100607.88;;;21.74;94.19
18749;BME280;9503;53.560;10.246;2022-08-19T07:11:45;100600.06;;;21.95;93.57
18749;BME280;9503;53.560;10.246;2022-08-19T07:14:13;100595.72;;;22.05;93.34
18749;BME280;9503;53.560;10.246;2022-08-19T07:16:43;100592.25;;;22.21;92.13
18749;BME280;9503;53.560;10.246;2022-08-19T07:19:10;100601.78;;;22.39;91.68
18749;BME280;9503;53.560;10.246;2022-08-19T07:21:38;100609.53;;;22.73;90.44
18749;BME280;9503;53.560;10.246;2022-08-19T07:24:05;100604.31;;;22.62;90.85
18749;BME280;9503;53.560;10.246;2022-08-19T07:26:38;100608.78;;;22.40;91.17
18749;BME280;9503;53.560;10.246;2022-08-19T07:29:06;100617.47;;;22.36;91.64
18749;BME280;9503;53.560;10.246;2022-08-19T07:31:33;100612.16;;;22.67;90.57
18749;BME280;9503;53.560;10.246;2022-08-19T07:34:04;100616.50;;;22.78;89.82
18749;BME280;9503;53.560;10.246;2022-08-19T07:36:33;100624.34;;;22.77;89.67
18749;BME280;9503;53.560;10.246;2022-08-19T07:39:04;100619.13;;;22.78;89.75
18749;BME280;9503;53.560;10.246;2022-08-19T07:41:32;100632.16;;;22.83;89.20
18749;BME280;9503;53.560;10.246;2022-08-19T07:43:59;100640.13;;;22.36;90.84
18749;BME280;9503;53.560;10.246;2022-08-19T07:46:28;100636.63;;;22.49;90.90
18749;BME280;9503;53.560;10.246;2022-08-19T07:48:57;100634.88;;;22.31;90.92
18749;BME280;9503;53.560;10.246;2022-08-19T07:51:24;100638.41;;;22.21;92.53
18749;BME280;9503;53.560;10.246;2022-08-19T07:53:50;100655.75;;;22.52;91.48
18749;BME280;9503;53.560;10.246;2022-08-19T07:56:20;100659.22;;;22.71;90.08
18749;BME280;9503;53.560;10.246;2022-08-19T07:58:49;100657.44;;;22.75;89.52
18749;BME280;9503;53.560;10.246;2022-08-19T08:01:18;100662.78;;;22.14;91.89
18749;BME280;9503;53.560;10.246;2022-08-19T08:03:46;100666.25;;;22.10;92.08
18749;BME280;9503;53.560;10.246;2022-08-19T08:06:42;100670.59;;;22.40;90.97
18749;BME280;9503;53.560;10.246;2022-08-19T08:09:32;100672.34;;;22.31;91.25
18749;BME280;9503;53.560;10.246;2022-08-19T08:12:03;100667.97;;;22.38;90.76
18749;BME280;9503;53.560;10.246;2022-08-19T08:14:34;100680.16;;;22.57;90.38
18749;BME280;9503;53.560;10.246;2022-08-19T08:17:03;100673.19;;;22.63;90.21
18749;BME280;9503;53.560;10.246;2022-08-19T08:19:30;100670.59;;;22.35;90.79
18749;BME280;9503;53.560;10.246;2022-08-19T08:21:58;100683.66;;;22.35;90.86
18749;BME280;9503;53.560;10.246;2022-08-19T08:24:29;100683.66;;;22.50;90.71
18749;BME280;9503;53.560;10.246;2022-08-19T08:26:58;100681.88;;;22.60;90.00
18749;BME280;9503;53.560;10.246;2022-08-19T08:29:28;100681.91;;;22.55;90.06
18749;BME280;9503;53.560;10.246;2022-08-19T08:31:55;100684.56;;;22.19;91.08
18749;BME280;9503;53.560;10.246;2022-08-19T08:34:22;100692.38;;;22.10;92.42
18749;BME280;9503;53.560;10.246;2022-08-19T08:36:49;100699.34;;;22.37;91.95
18749;BME280;9503;53.560;10.246;2022-08-19T08:39:18;100694.13;;;22.18;92.31
18749;BME280;9503;53.560;10.246;2022-08-19T08:41:51;100691.50;;;22.27;91.87
18749;BME280;9503;53.560;10.246;2022-08-19T08:44:22;100693.25;;;22.48;91.39
18749;BME280;9503;53.560;10.246;2022-08-19T08:46:54;100690.59;;;22.60;90.80
18749;BME280;9503;53.560;10.246;2022-08-19T08:49:30;100700.16;;;22.80;90.07
18749;BME280;9503;53.560;10.246;2022-08-19T08:52:03;100695.78;;;22.76;89.62
18749;BME280;9503;53.560;10.246;2022-08-19T08:54:35;100691.44;;;22.95;89.38
18749;BME280;9503;53.560;10.246;2022-08-19T08:57:04;100692.31;;;22.84;88.76
18749;BME280;9503;53.560;10.246;2022-08-19T08:59:36;100697.56;;;22.58;90.43
18749;BME280;9503;53.560;10.246;2022-08-19T09:02:08;100701.91;;;22.85;89.50
18749;BME280;9503;53.560;10.246;2022-08-19T09:04:36;100692.34;;;22.71;89.81
18749;BME280;9503;53.560;10.246;2022-08-19T09:07:30;100696.72;;;22.58;90.67
18749;BME280;9503;53.560;10.246;2022-08-19T09:10:05;100703.66;;;22.54;90.79
18749;BME280;9503;53.560;10.246;2022-08-19T09:12:38;100701.09;;;22.33;91.90
18749;BME280;9503;53.560;10.246;2022-08-19T09:15:10;100696.72;;;22.52;91.20
18749;BME280;9503;53.560;10.246;2022-08-19T09:17:40;100700.16;;;22.69;90.58
18749;BME280;9503;53.560;10.246;2022-08-19T09:20:15;100702.75;;;22.80;90.25
18749;BME280;9503;53.560;10.246;2022-08-19T09:22:43;100701.00;;;22.94;89.30
18749;BME280;9503;53.560;10.246;2022-08-19T09:25:12;100703.66;;;22.71;90.17
18749;BME280;9503;53.560;10.246;2022-08-19T09:27:40;100706.28;;;22.71;90.27
18749;BME280;9503;53.560;10.246;2022-08-19T09:30:11;100699.28;;;22.90;90.25
18749;BME280;9503;53.560;10.246;2022-08-19T09:32:39;100695.81;;;22.71;89.92
18749;BME280;9503;53.560;10.246;2022-08-19T09:35:07;100692.28;;;22.83;90.41
18749;BME280;9503;53.560;10.246;2022-08-19T09:37:34;100696.69;;;22.66;90.97
18749;BME280;9503;53.560;10.246;2022-08-19T09:40:02;100700.16;;;22.69;91.03
18749;BME280;9503;53.560;10.246;2022-08-19T09:42:29;100701.03;;;22.67;91.11
18749;BME280;9503;53.560;10.246;2022-08-19T09:44:56;100691.44;;;22.79;90.37
18749;BME280;9503;53.560;10.246;2022-08-19T09:47:22;100689.72;;;22.60;91.64
18749;BME280;9503;53.560;10.246;2022-08-19T09:49:50;100688.84;;;22.64;91.21
18749;BME280;9503;53.560;10.246;2022-08-19T09:52:17;100691.44;;;22.73;91.06
18749;BME280;9503;53.560;10.246;2022-08-19T09:54:44;100694.00;;;22.84;90.69
18749;BME280;9503;53.560;10.246;2022-08-19T09:57:11;100697.53;;;22.91;90.43
18749;BME280;9503;53.560;10.246;2022-08-19T09:59:39;100692.28;;;22.98;90.26
18749;BME280;9503;53.560;10.246;2022-08-19T10:02:05;100696.63;;;22.98;90.40
18749;BME280;9503;53.560;10.246;2022-08-19T10:04:32;100698.44;;;22.57;91.14
18749;BME280;9503;53.560;10.246;2022-08-19T10:07:14;100692.31;;;22.72;91.47
18749;BME280;9503;53.560;10.246;2022-08-19T10:09:41;100689.69;;;22.69;91.27
18749;BME280;9503;53.560;10.246;2022-08-19T10:12:08;100680.13;;;22.67;91.17
18749;BME280;9503;53.560;10.246;2022-08-19T10:14:35;100699.28;;;22.78;91.07
18749;BME280;9503;53.560;10.246;2022-08-19T10:17:02;100701.91;;;22.85;90.60
18749;BME280;9503;53.560;10.246;2022-08-19T10:19:29;100701.00;;;22.94;90.32
18749;BME280;9503;53.560;10.246;2022-08-19T10:22:02;100695.75;;;23.03;89.72
18749;BME280;9503;53.560;10.246;2022-08-19T10:24:31;100693.09;;;23.15;88.94
18749;BME280;9503;53.560;10.246;2022-08-19T10:26:59;100693.16;;;22.97;89.90
18749;BME280;9503;53.560;10.246;2022-08-19T10:29:26;100701.00;;;22.97;89.85
18749;BME280;9503;53.560;10.246;2022-08-19T10:31:53;100694.88;;;23.04;89.61
18749;BME280;9503;53.560;10.246;2022-08-19T10:34:21;100700.13;;;23.03;89.39
18749;BME280;9503;53.560;10.246;2022-08-19T10:36:48;100701.84;;;23.05;89.14
18749;BME280;9503;53.560;10.246;2022-08-19T10:39:15;100701.84;;;23.05;89.48
18749;BME280;9503;53.560;10.246;2022-08-19T10:41:43;100708.00;;;22.92;89.97
18749;BME280;9503;53.560;10.246;2022-08-19T10:44:12;100708.78;;;23.15;89.80
18749;BME280;9503;53.560;10.246;2022-08-19T10:46:40;100707.09;;;23.07;89.35
18749;BME280;9503;53.560;10.246;2022-08-19T10:49:10;100699.16;;;23.24;89.02
18749;BME280;9503;53.560;10.246;2022-08-19T10:51:37;100700.78;;;23.48;88.01
18749;BME280;9503;53.560;10.246;2022-08-19T10:54:22;100700.72;;;23.69;86.78
18749;BME280;9503;53.560;10.246;2022-08-19T10:56:55;100697.16;;;23.78;86.41
18749;BME280;9503;53.560;10.246;2022-08-19T10:59:22;100692.56;;;24.09;85.81
18749;BME280;9503;53.560;10.246;2022-08-19T11:01:50;100697.69;;;24.25;84.38
18749;BME280;9503;53.560;10.246;2022-08-19T11:04:18;100691.66;;;24.17;84.55
18749;BME280;9503;53.560;10.246;2022-08-19T11:06:47;100691.56;;;24.26;83.56
18749;BME280;9503;53.560;10.246;2022-08-19T11:09:15;100697.63;;;24.32;83.80
18749;BME280;9503;53.560;10.246;2022-08-19T11:11:42;100695.69;;;24.55;83.26
18749;BME280;9503;53.560;10.246;2022-08-19T11:14:14;100695.53;;;24.72;82.25
18749;BME280;9503;53.560;10.246;2022-08-19T11:16:43;100700.72;;;24.75;81.54
18749;BME280;9503;53.560;10.246;2022-08-19T11:21:41;100694.88;;;24.48;82.10
18749;BME280;9503;53.560;10.246;2022-08-19T11:24:10;100700.16;;;24.47;82.48
18749;BME280;9503;53.560;10.246;2022-08-19T11:26:39;100693.16;;;24.47;82.50
18749;BME280;9503;53.560;10.246;2022-08-19T11:29:07;100698.63;;;24.14;84.14
18749;BME280;9503;53.560;10.246;2022-08-19T11:31:40;100696.84;;;24.20;84.05
18749;BME280;9503;53.560;10.246;2022-08-19T11:34:09;100692.47;;;24.21;84.16
18749;BME280;9503;53.560;10.246;2022-08-19T11:36:38;100685.69;;;23.95;84.87
18749;BME280;9503;53.560;10.246;2022-08-19T11:39:06;100690.94;;;23.94;85.26
18749;BME280;9503;53.560;10.246;2022-08-19T11:41:36;100688.34;;;23.89;85.67
18749;BME280;9503;53.560;10.246;2022-08-19T11:44:03;100684.78;;;23.99;84.87
18749;BME280;9503;53.560;10.246;2022-08-19T11:46:32;100674.38;;;23.90;84.97
18749;BME280;9503;53.560;10.246;2022-08-19T11:49:00;100682.16;;;23.99;84.81
18749;BME280;9503;53.560;10.246;2022-08-19T11:51:28;100677.72;;;24.11;85.06
18749;BME280;9503;53.560;10.246;2022-08-19T11:53:56;100680.38;;;24.05;84.23
18749;BME280;9503;53.560;10.246;2022-08-19T11:56:23;100685.50;;;24.20;84.98
18749;BME280;9503;53.560;10.246;2022-08-19T11:58:51;100691.44;;;24.42;84.58
18749;BME280;9503;53.560;10.246;2022-08-19T12:01:20;100689.44;;;24.67;82.66
18749;BME280;9503;53.560;10.246;2022-08-19T12:03:48;100693.78;;;24.71;81.57
18749;BME280;9503;53.560;10.246;2022-08-19T12:06:21;100692.63;;;24.96;80.69
18749;BME280;9503;53.560;10.246;2022-08-19T12:08:49;100693.16;;;24.47;82.41
18749;BME280;9503;53.560;10.246;2022-08-19T12:11:16;100683.44;;;24.57;82.86
18749;BME280;9503;53.560;10.246;2022-08-19T12:13:43;100682.78;;;24.34;83.00
18749;BME280;9503;53.560;10.246;2022-08-19T12:16:13;100687.53;;;24.84;81.33
18749;BME280;9503;53.560;10.246;2022-08-19T12:18:41;100684.69;;;25.04;80.69
18749;BME280;9503;53.560;10.246;2022-08-19T12:21:09;100687.78;;;25.37;79.95
18749;BME280;9503;53.560;10.246;2022-08-19T12:23:37;100686.00;;;25.42;79.45
18749;BME280;9503;53.560;10.246;2022-08-19T12:26:04;100688.16;;;25.75;78.65
18749;BME280;9503;53.560;10.246;2022-08-19T12:28:31;100687.75;;;25.40;78.68
18749;BME280;9503;53.560;10.246;2022-08-19T12:30:58;100679.06;;;25.36;78.66
18749;BME280;9503;53.560;10.246;2022-08-19T12:33:25;100683.41;;;25.37;78.45
18749;BME280;9503;53.560;10.246;2022-08-19T12:35:54;100686.38;;;25.10;79.62
18749;BME280;9503;53.560;10.246;2022-08-19T12:38:21;100688.53;;;24.72;81.42
18749;BME280;9503;53.560;10.246;2022-08-19T12:40:50;100686.28;;;24.34;82.43
18749;BME280;9503;53.560;10.246;2022-08-19T12:43:18;100686.69;;;24.79;82.11
18749;BME280;9503;53.560;10.246;2022-08-19T12:45:46;100677.72;;;25.00;80.71
18749;BME280;9503;53.560;10.246;2022-08-19T12:48:13;100684.44;;;25.24;79.53
18749;BME280;9503;53.560;10.246;2022-08-19T12:50:41;100690.75;;;25.12;80.23
18749;BME280;9503;53.560;10.246;2022-08-19T12:53:07;100678.28;;;25.28;79.81
18749;BME280;9503;53.560;10.246;2022-08-19T12:55:34;100682.56;;;25.33;79.70
18749;BME280;9503;53.560;10.246;2022-08-19T12:58:02;100682.88;;;25.78;78.76
18749;BME280;9503;53.560;10.246;2022-08-19T13:00:29;100674.78;;;26.44;76.71